sensor_id;sensor_type;location;lat;lon;timestamp;pressure;altitude;pressure_sealevel;temperature;humidity
70027;BME280;57506;50.092;15.804;2023-03-14T00:01:23;97291.19;;;7.91;100.00
70027;BME280;57506;50.092;15.804;2023-03-14T00:03:50;97282.94;;;7.92;100.00
70027;BME280;57506;50.092;15.804;2023-03-14T00:06:16;97312.06;;;8.07;100.00
70027;BME280;57506;50.092;15.804;2023-03-14T00:08:43;97390.81;;;8.13;100.00
70027;BME280;57506;50.092;15.804;2023-03-14T00:11:12;97443.31;;;7.59;100.00
70027;BME280;57506;50.092;15.804;2023-03-14T00:13:38;97433.00;;;7.56;100.00
70027;BME280;57506;50.092;15.804;2023-03-14T00:16:06;97448.13;;;7.75;100.00
70027;BME280;57506;50.092;15.804;2023-03-14T00:18:32;97444.66;;;7.68;100.00
70027;BME280;57506;50.092;15.804;2023-03-14T00:20:59;97462.22;;;7.64;100.00
70027;BME280;57506;50.092;15.804;2023-03-14T00:23:26;97480.94;;;7.70;100.00
70027;BME280;57506;50.092;15.804;2023-03-14T00:25:51;97495.34;;;7.76;100.00
70027;BME280;57506;50.092;15.804;2023-03-14T00:28:17;97516.81;;;7.76;100.00
70027;BME280;57506;50.092;15.804;2023-03-14T00:30:43;97515.25;;;7.93;100.00
70027;BME280;57506;50.092;15.804;2023-03-14T00:33:08;97511.56;;;7.88;100.00
70027;BME280;57506;50.092;15.804;2023-03-14T00:35:34;97527.88;;;7.86;100.00
70027;BME280;57506;50.092;15.804;2023-03-14T00:37:59;97524.31;;;7.92;100.00
70027;BME280;57506;50.092;15.804;2023-03-14T00:40:25;97510.63;;;7.76;100.00
70027;BME280;57506;50.092;15.804;2023-03-14T00:42:50;97505.59;;;7.86;100.00
70027;BME280;57506;50.092;15.804;2023-03-14T00:45:16;97495.03;;;7.91;100.00
70027;BME280;57506;50.092;15.804;2023-03-14T00:47:41;97512.38;;;7.88;100.00
70027;BME280;57506;50.092;15.804;2023-03-14T00:50:11;97520.59;;;7.93;100.00
70027;BME280;57506;50.092;15.804;2023-03-14T00:52:37;97524.75;;;7.89;100.00
70027;BME280;57506;50.092;15.804;2023-03-14T00:55:03;97527.31;;;7.78;100.00
70027;BME280;57506;50.092;15.804;2023-03-14T00:57:28;97529.53;;;7.49;100.00
70027;BME280;57506;50.092;15.804;2023-03-14T00:59:54;97543.06;;;7.29;100.00
70027;BME280;57506;50.092;15.804;2023-03-14T01:02:19;97545.13;;;7.27;100.00
70027;BME280;57506;50.092;15.804;2023-03-14T01:04:47;97538.88;;;6.95;100.00
70027;BME280;57506;50.092;15.804;2023-03-14T01:07:13;97546.91;;;6.82;100.00
70027;BME280;57506;50.092;15.804;2023-03-14T01:09:38;97547.59;;;6.64;100.00
70027;BME280;57506;50.092;15.804;2023-03-14T01:12:04;97541.44;;;6.44;100.00
70027;BME280;57506;50.092;15.804;2023-03-14T01:14:29;97549.06;;;6.34;100.00
70027;BME280;57506;50.092;15.804;2023-03-14T01:16:55;97540.19;;;6.33;100.00
70027;BME280;57506;50.092;15.804;2023-03-14T01:19:26;97522.13;;;6.16;100.00
70027;BME280;57506;50.092;15.804;2023-03-14T01:21:52;97524.19;;;6.07;100.00
70027;BME280;57506;50.092;15.804;2023-03-14T01:24:17;97517.59;;;5.96;100.00
70027;BME280;57506;50.092;15.804;2023-03-14T01:26:43;97512.44;;;5.82;100.00
70027;BME280;57506;50.092;15.804;2023-03-14T01:29:09;97492.69;;;5.83;100.00
70027;BME280;57506;50.092;15.804;2023-03-14T01:31:34;97472.34;;;6.15;100.00
70027;BME280;57506;50.092;15.804;2023-03-14T01:34:00;97464.06;;;6.43;100.00
70027;BME280;57506;50.092;15.804;2023-03-14T01:36:25;97446.25;;;6.68;100.00
70027;BME280;57506;50.092;15.804;2023-03-14T01:38:51;97438.81;;;7.15;100.00
70027;BME280;57506;50.092;15.804;2023-03-14T01:41:19;97418.28;;;7.40;100.00
70027;BME280;57506;50.092;15.804;2023-03-14T01:43:45;97417.72;;;8.06;100.00
70027;BME280;57506;50.092;15.804;2023-03-14T01:46:18;97418.16;;;8.46;99.03
70027;BME280;57506;50.092;15.804;2023-03-14T01:54:14;97408.88;;;8.78;95.06
70027;BME280;57506;50.092;15.804;2023-03-14T01:56:43;97415.91;;;8.80;94.89
70027;BME280;57506;50.092;15.804;2023-03-14T01:59:12;97409.63;;;8.86;94.18
70027;BME280;57506;50.092;15.804;2023-03-14T02:01:40;97402.13;;;8.58;96.36
70027;BME280;57506;50.092;15.804;2023-03-14T02:04:08;97395.59;;;8.29;96.84
70027;BME280;57506;50.092;15.804;2023-03-14T02:06:48;97391.88;;;8.12;98.92
70027;BME280;57506;50.092;15.804;2023-03-14T02:09:15;97397.78;;;7.77;100.00
70027;BME280;57506;50.092;15.804;2023-03-14T02:11:41;97395.06;;;7.59;100.00
70027;BME280;57506;50.092;15.804;2023-03-14T02:14:07;97375.25;;;7.60;100.00
70027;BME280;57506;50.092;15.804;2023-03-14T02:16:35;97362.81;;;7.65;100.00
70027;BME280;57506;50.092;15.804;2023-03-14T02:19:01;97363.47;;;7.61;100.00
70027;BME280;57506;50.092;15.804;2023-03-14T02:21:42;97364.13;;;7.31;100.00
70027;BME280;57506;50.092;15.804;2023-03-14T02:24:38;97346.03;;;7.52;100.00
70027;BME280;57506;50.092;15.804;2023-03-14T02:27:09;97350.59;;;7.69;100.00
70027;BME280;57506;50.092;15.804;2023-03-14T02:29:39;97315.78;;;7.88;100.00
70027;BME280;57506;50.092;15.804;2023-03-14T02:32:06;97308.13;;;8.28;100.00
70027;BME280;57506;50.092;15.804;2023-03-14T02:34:33;97291.72;;;8.18;100.00
70027;BME280;57506;50.092;15.804;2023-03-14T02:37:00;97292.09;;;8.21;100.00
70027;BME280;57506;50.092;15.804;2023-03-14T02:39:40;97295.81;;;8.20;100.00
70027;BME280;57506;50.092;15.804;2023-03-14T02:42:06;97289.84;;;8.36;100.00
70027;BME280;57506;50.092;15.804;2023-03-14T02:44:32;97285.66;;;8.59;99.76
70027;BME280;57506;50.092;15.804;2023-03-14T02:46:58;97278.84;;;8.56;99.61
70027;BME280;57506;50.092;15.804;2023-03-14T02:49:25;97293.50;;;8.72;99.11
70027;BME280;57506;50.092;15.804;2023-03-14T02:51:52;97301.69;;;8.77;98.28
70027;BME280;57506;50.092;15.804;2023-03-14T02:54:19;97313.78;;;8.98;97.28
70027;BME280;57506;50.092;15.804;2023-03-14T02:56:45;97288.69;;;8.92;97.50
70027;BME280;57506;50.092;15.804;2023-03-14T02:59:11;97296.81;;;8.86;97.68
70027;BME280;57506;50.092;15.804;2023-03-14T03:01:36;97294.59;;;8.83;97.24
70027;BME280;57506;50.092;15.804;2023-03-14T03:04:02;97290.84;;;8.84;97.79
70027;BME280;57506;50.092;15.804;2023-03-14T03:06:28;97260.06;;;8.56;99.06
70027;BME280;57506;50.092;15.804;2023-03-14T03:08:53;97279.75;;;8.50;100.00
70027;BME280;57506;50.092;15.804;2023-03-14T03:11:19;97261.31;;;8.42;100.00
70027;BME280;57506;50.092;15.804;2023-03-14T03:13:45;97270.50;;;8.46;100.00
70027;BME280;57506;50.092;15.804;2023-03-14T03:16:10;97268.75;;;8.40;100.00
70027;BME280;57506;50.092;15.804;2023-03-14T03:18:38;97271.75;;;8.32;100.00
70027;BME280;57506;50.092;15.804;2023-03-14T03:21:04;97263.69;;;8.32;100.00
70027;BME280;57506;50.092;15.804;2023-03-14T03:23:30;97264.69;;;8.31;100.00
70027;BME280;57506;50.092;15.804;2023-03-14T03:25:55;97258.91;;;8.34;100.00
70027;BME280;57506;50.092;15.804;2023-03-14T03:28:21;97271.00;;;8.25;100.00
70027;BME280;57506;50.092;15.804;2023-03-14T03:30:46;97255.34;;;8.22;100.00
70027;BME280;57506;50.092;15.804;2023-03-14T03:33:12;97268.44;;;8.30;100.00
70027;BME280;57506;50.092;15.804;2023-03-14T03:35:49;97264.09;;;8.29;100.00
70027;BME280;57506;50.092;15.804;2023-03-14T03:38:15;97260.56;;;8.35;100.00
70027;BME280;57506;50.092;15.804;2023-03-14T03:40:42;97259.66;;;8.23;100.00
70027;BME280;57506;50.092;15.804;2023-03-14T03:43:08;97267.88;;;8.10;100.00
70027;BME280;57506;50.092;15.804;2023-03-14T03:45:34;97282.19;;;8.03;100.00
70027;BME280;57506;50.092;15.804;2023-03-14T03:47:59;97290.06;;;7.98;100.00
70027;BME280;57506;50.092;15.804;2023-03-14T03:50:25;97278.75;;;7.96;100.00
70027;BME280;57506;50.092;15.804;2023-03-14T03:52:50;97257.00;;;7.86;100.00
70027;BME280;57506;50.092;15.804;2023-03-14T03:55:16;97258.94;;;7.79;100.00
70027;BME280;57506;50.092;15.804;2023-03-14T03:57:41;97232.72;;;7.63;100.00
70027;BME280;57506;50.092;15.804;2023-03-14T04:00:07;97224.81;;;7.50;100.00
70027;BME280;57506;50.092;15.804;2023-03-14T04:02:36;97223.34;;;7.54;100.00
70027;BME280;57506;50.092;15.804;2023-03-14T04:05:01;97234.28;;;7.52;100.00
70027;BME280;57506;50.092;15.804;2023-03-14T04:07:27;97236.78;;;7.47;100.00
70027;BME280;57506;50.092;15.804;2023-03-14T04:09:52;97245.78;;;7.34;100.00
70027;BME280;57506;50.092;15.804;2023-03-14T04:12:18;97249.16;;;7.30;100.00
70027;BME280;57506;50.092;15.804;2023-03-14T04:14:43;97238.91;;;7.20;100.00
70027;BME280;57506;50.092;15.804;2023-03-14T04:17:10;97246.03;;;7.08;100.00
70027;BME280;57506;50.092;15.804;2023-03-14T04:19:35;97241.16;;;6.98;100.00
70027;BME280;57506;50.092;15.804;2023-03-14T04:22:01;97238.56;;;6.92;100.00
70027;BME280;57506;50.092;15.804;2023-03-14T04:24:26;97227.66;;;6.87;100.00
70027;BME280;57506;50.092;15.804;2023-03-14T04:26:52;97211.78;;;6.92;100.00
70027;BME280;57506;50.092;15.804;2023-03-14T04:29:17;97183.25;;;6.79;100.00
70027;BME280;57506;50.092;15.804;2023-03-14T04:31:43;97195.81;;;6.79;100.00
70027;BME280;57506;50.092;15.804;2023-03-14T04:34:08;97193.69;;;6.62;100.00
70027;BME280;57506;50.092;15.804;2023-03-14T04:36:34;97185.91;;;6.54;100.00
70027;BME280;57506;50.092;15.804;2023-03-14T04:38:59;97169.09;;;6.47;100.00
70027;BME280;57506;50.092;15.804;2023-03-14T04:41:25;97173.88;;;6.39;100.00
70027;BME280;57506;50.092;15.804;2023-03-14T04:43:50;97175.34;;;6.35;100.00
70027;BME280;57506;50.092;15.804;2023-03-14T04:46:19;97169.84;;;6.29;100.00
70027;BME280;57506;50.092;15.804;2023-03-14T04:48:44;97201.66;;;6.38;100.00
70027;BME280;57506;50.092;15.804;2023-03-14T04:51:10;97214.94;;;6.19;100.00
70027;BME280;57506;50.092;15.804;2023-03-14T04:53:35;97231.66;;;6.15;100.00
70027;BME280;57506;50.092;15.804;2023-03-14T04:56:02;97228.19;;;6.08;100.00
70027;BME280;57506;50.092;15.804;2023-03-14T04:58:27;97232.56;;;5.95;100.00
70027;BME280;57506;50.092;15.804;2023-03-14T05:00:53;97237.69;;;5.97;100.00
70027;BME280;57506;50.092;15.804;2023-03-14T05:03:19;97221.25;;;6.00;100.00
70027;BME280;57506;50.092;15.804;2023-03-14T05:05:45;97221.25;;;6.00;100.00
70027;BME280;57506;50.092;15.804;2023-03-14T05:08:11;97209.97;;;5.91;100.00
70027;BME280;57506;50.092;15.804;2023-03-14T05:10:36;97209.16;;;5.84;100.00
70027;BME280;57506;50.092;15.804;2023-03-14T05:13:02;97215.91;;;5.87;100.00
70027;BME280;57506;50.092;15.804;2023-03-14T05:15:27;97206.28;;;5.79;100.00
70027;BME280;57506;50.092;15.804;2023-03-14T05:17:53;97199.50;;;5.77;100.00
70027;BME280;57506;50.092;15.804;2023-03-14T05:20:20;97207.19;;;5.60;100.00
70027;BME280;57506;50.092;15.804;2023-03-14T05:22:45;97223.44;;;5.45;100.00
70027;BME280;57506;50.092;15.804;2023-03-14T05:25:11;97206.22;;;5.35;100.00
70027;BME280;57506;50.092;15.804;2023-03-14T05:27:36;97208.69;;;5.30;100.00
70027;BME280;57506;50.092;15.804;2023-03-14T05:30:04;97197.41;;;5.27;100.00
70027;BME280;57506;50.092;15.804;2023-03-14T05:32:30;97175.66;;;5.17;100.00
70027;BME280;57506;50.092;15.804;2023-03-14T05:34:55;97193.50;;;5.23;100.00
70027;BME280;57506;50.092;15.804;2023-03-14T05:37:25;97180.75;;;5.25;100.00
70027;BME280;57506;50.092;15.804;2023-03-14T05:39:50;97171.88;;;5.45;100.00
70027;BME280;57506;50.092;15.804;2023-03-14T05:42:16;97174.91;;;5.55;100.00
70027;BME280;57506;50.092;15.804;2023-03-14T05:44:42;97161.13;;;5.65;100.00
70027;BME280;57506;50.092;15.804;2023-03-14T05:47:07;97182.66;;;5.76;100.00
70027;BME280;57506;50.092;15.804;2023-03-14T05:49:33;97164.56;;;5.78;100.00
70027;BME280;57506;50.092;15.804;2023-03-14T05:51:58;97186.22;;;6.08;100.00
70027;BME280;57506;50.092;15.804;2023-03-14T05:54:24;97179.56;;;6.17;100.00
70027;BME280;57506;50.092;15.804;2023-03-14T05:56:49;97192.41;;;6.40;100.00
70027;BME280;57506;50.092;15.804;2023-03-14T05:59:15;97207.44;;;6.66;100.00
70027;BME280;57506;50.092;15.804;2023-03-14T06:01:40;97211.59;;;6.87;100.00
70027;BME280;57506;50.092;15.804;2023-03-14T06:04:06;97190.88;;;7.00;100.00
70027;BME280;57506;50.092;15.804;2023-03-14T06:06:31;97209.19;;;7.28;100.00
70027;BME280;57506;50.092;15.804;2023-03-14T06:08:57;97208.72;;;7.31;100.00
70027;BME280;57506;50.092;15.804;2023-03-14T06:11:23;97212.91;;;7.46;100.00
70027;BME280;57506;50.092;15.804;2023-03-14T06:13:48;97219.31;;;7.45;100.00
70027;BME280;57506;50.092;15.804;2023-03-14T06:16:14;97224.22;;;7.48;100.00
70027;BME280;57506;50.092;15.804;2023-03-14T06:18:39;97225.63;;;7.50;100.00
70027;BME280;57506;50.092;15.804;2023-03-14T06:21:05;97210.47;;;7.44;100.00
70027;BME280;57506;50.092;15.804;2023-03-14T06:23:38;97221.19;;;7.44;100.00
70027;BME280;57506;50.092;15.804;2023-03-14T06:26:04;97220.78;;;7.41;100.00
70027;BME280;57506;50.092;15.804;2023-03-14T06:28:30;97218.34;;;7.39;100.00
70027;BME280;57506;50.092;15.804;2023-03-14T06:30:56;97221.28;;;7.31;100.00
70027;BME280;57506;50.092;15.804;2023-03-14T06:33:22;97220.94;;;7.27;100.00
70027;BME280;57506;50.092;15.804;2023-03-14T06:35:47;97216.88;;;7.18;100.00
70027;BME280;57506;50.092;15.804;2023-03-14T06:38:13;97217.31;;;7.15;100.00
70027;BME280;57506;50.092;15.804;2023-03-14T06:40:38;97236.22;;;7.20;100.00
70027;BME280;57506;50.092;15.804;2023-03-14T06:43:04;97233.13;;;7.23;100.00
70027;BME280;57506;50.092;15.804;2023-03-14T06:45:29;97227.75;;;7.23;100.00
70027;BME280;57506;50.092;15.804;2023-03-14T06:47:56;97238.13;;;7.38;100.00
70027;BME280;57506;50.092;15.804;2023-03-14T06:50:22;97223.69;;;7.39;100.00
70027;BME280;57506;50.092;15.804;2023-03-14T06:52:48;97214.63;;;7.40;100.00
70027;BME280;57506;50.092;15.804;2023-03-14T06:55:15;97212.16;;;7.38;100.00
70027;BME280;57506;50.092;15.804;2023-03-14T06:57:40;97225.13;;;7.42;100.00
70027;BME280;57506;50.092;15.804;2023-03-14T07:00:07;97210.72;;;7.36;100.00
70027;BME280;57506;50.092;15.804;2023-03-14T07:02:33;97212.31;;;7.44;100.00
70027;BME280;57506;50.092;15.804;2023-03-14T07:04:58;97215.44;;;7.41;100.00
70027;BME280;57506;50.092;15.804;2023-03-14T07:07:26;97222.81;;;7.45;100.00
70027;BME280;57506;50.092;15.804;2023-03-14T07:09:51;97211.56;;;7.36;100.00
70027;BME280;57506;50.092;15.804;2023-03-14T07:12:17;97217.81;;;7.49;100.00
70027;BME280;57506;50.092;15.804;2023-03-14T07:14:42;97208.66;;;7.56;100.00
70027;BME280;57506;50.092;15.804;2023-03-14T07:17:08;97220.81;;;7.59;100.00
70027;BME280;57506;50.092;15.804;2023-03-14T07:19:33;97202.09;;;7.52;100.00
70027;BME280;57506;50.092;15.804;2023-03-14T07:21:59;97226.09;;;7.65;100.00
70027;BME280;57506;50.092;15.804;2023-03-14T07:24:25;97227.94;;;7.65;100.00
70027;BME280;57506;50.092;15.804;2023-03-14T07:26:50;97217.59;;;7.68;100.00
70027;BME280;57506;50.092;15.804;2023-03-14T07:29:16;97232.19;;;7.72;100.00
70027;BME280;57506;50.092;15.804;2023-03-14T07:31:41;97250.44;;;7.82;100.00
70027;BME280;57506;50.092;15.804;2023-03-14T07:34:07;97258.78;;;7.92;100.00
70027;BME280;57506;50.092;15.804;2023-03-14T07:36:32;97242.84;;;7.97;100.00
70027;BME280;57506;50.092;15.804;2023-03-14T07:38:58;97231.53;;;7.95;100.00
70027;BME280;57506;50.092;15.804;2023-03-14T07:41:23;97250.59;;;8.05;100.00
70027;BME280;57506;50.092;15.804;2023-03-14T07:43:49;97242.22;;;8.14;100.00
70027;BME280;57506;50.092;15.804;2023-03-14T07:46:15;97255.22;;;8.28;100.00
70027;BME280;57506;50.092;15.804;2023-03-14T07:48:41;97236.69;;;8.27;100.00
70027;BME280;57506;50.092;15.804;2023-03-14T07:51:07;97238.91;;;8.30;100.00
70027;BME280;57506;50.092;15.804;2023-03-14T07:53:32;97232.81;;;8.23;100.00
70027;BME280;57506;50.092;15.804;2023-03-14T07:55:58;97230.28;;;8.28;100.00
70027;BME280;57506;50.092;15.804;2023-03-14T07:58:23;97233.06;;;8.21;100.00
70027;BME280;57506;50.092;15.804;2023-03-14T08:00:50;97246.72;;;8.31;100.00
70027;BME280;57506;50.092;15.804;2023-03-14T08:03:17;97248.00;;;8.29;100.00
70027;BME280;57506;50.092;15.804;2023-03-14T08:05:42;97251.97;;;8.26;100.00
70027;BME280;57506;50.092;15.804;2023-03-14T08:08:08;97249.16;;;8.21;100.00
70027;BME280;57506;50.092;15.804;2023-03-14T08:10:34;97251.59;;;8.23;100.00
70027;BME280;57506;50.092;15.804;2023-03-14T08:13:00;97255.19;;;8.35;100.00
70027;BME280;57506;50.092;15.804;2023-03-14T08:15:27;97236.44;;;8.47;100.00
70027;BME280;57506;50.092;15.804;2023-03-14T08:17:53;97232.50;;;8.61;100.00
70027;BME280;57506;50.092;15.804;2023-03-14T08:20:24;97247.66;;;8.97;100.00
70027;BME280;57506;50.092;15.804;2023-03-14T08:22:50;97237.19;;;9.19;100.00
70027;BME280;57506;50.092;15.804;2023-03-14T08:25:16;97250.53;;;9.37;100.00
70027;BME280;57506;50.092;15.804;2023-03-14T08:27:42;97250.16;;;9.68;100.00
70027;BME280;57506;50.092;15.804;2023-03-14T08:30:11;97256.44;;;9.86;100.00
70027;BME280;57506;50.092;15.804;2023-03-14T08:32:38;97254.53;;;10.09;100.00
70027;BME280;57506;50.092;15.804;2023-03-14T08:35:05;97242.03;;;10.03;100.00
70027;BME280;57506;50.092;15.804;2023-03-14T08:37:32;97238.75;;;10.01;100.00
70027;BME280;57506;50.092;15.804;2023-03-14T08:39:58;97258.84;;;10.10;100.00
70027;BME280;57506;50.092;15.804;2023-03-14T08:42:24;97262.84;;;10.20;100.00
70027;BME280;57506;50.092;15.804;2023-03-14T08:44:51;97252.53;;;10.16;100.00
70027;BME280;57506;50.092;15.804;2023-03-14T08:47:17;97256.28;;;10.15;100.00
70027;BME280;57506;50.092;15.804;2023-03-14T08:49:42;97269.06;;;10.20;100.00
70027;BME280;57506;50.092;15.804;2023-03-14T08:52:08;97274.06;;;10.16;100.00
70027;BME280;57506;50.092;15.804;2023-03-14T08:54:34;97269.97;;;10.14;100.00
70027;BME280;57506;50.092;15.804;2023-03-14T08:56:59;97268.31;;;10.13;100.00
70027;BME280;57506;50.092;15.804;2023-03-14T08:59:25;97294.41;;;10.24;100.00
70027;BME280;57506;50.092;15.804;2023-03-14T09:01:50;97288.94;;;10.19;100.00
70027;BME280;57506;50.092;15.804;2023-03-14T09:04:16;97296.16;;;10.30;100.00
70027;BME280;57506;50.092;15.804;2023-03-14T09:06:42;97287.50;;;10.28;100.00
70027;BME280;57506;50.092;15.804;2023-03-14T09:09:08;97291.59;;;10.31;100.00
70027;BME280;57506;50.092;15.804;2023-03-14T09:11:34;97285.59;;;10.40;100.00
70027;BME280;57506;50.092;15.804;2023-03-14T09:13:59;97269.88;;;10.49;100.00
70027;BME280;57506;50.092;15.804;2023-03-14T09:16:25;97261.47;;;10.45;100.00
70027;BME280;57506;50.092;15.804;2023-03-14T09:18:51;97267.78;;;10.51;100.00
70027;BME280;57506;50.092;15.804;2023-03-14T09:21:20;97267.38;;;10.59;100.00
70027;BME280;57506;50.092;15.804;2023-03-14T09:23:45;97263.84;;;10.70;100.00
70027;BME280;57506;50.092;15.804;2023-03-14T09:26:11;97271.50;;;10.78;100.00
70027;BME280;57506;50.092;15.804;2023-03-14T09:28:37;97283.78;;;10.86;100.00
70027;BME280;57506;50.092;15.804;2023-03-14T09:31:10;97284.19;;;10.95;100.00
70027;BME280;57506;50.092;15.804;2023-03-14T09:33:36;97278.91;;;11.00;100.00
70027;BME280;57506;50.092;15.804;2023-03-14T09:36:02;97280.59;;;11.06;100.00
70027;BME280;57506;50.092;15.804;2023-03-14T09:38:28;97272.03;;;11.09;100.00
70027;BME280;57506;50.092;15.804;2023-03-14T09:40:54;97275.97;;;11.18;100.00
70027;BME280;57506;50.092;15.804;2023-03-14T09:43:24;97289.22;;;11.36;100.00
70027;BME280;57506;50.092;15.804;2023-03-14T09:45:50;97295.94;;;11.50;100.00
70027;BME280;57506;50.092;15.804;2023-03-14T09:48:22;97299.34;;;11.63;100.00
70027;BME280;57506;50.092;15.804;2023-03-14T09:50:51;97289.25;;;11.75;100.00
70027;BME280;57506;50.092;15.804;2023-03-14T09:53:20;97297.31;;;12.08;99.53
70027;BME280;57506;50.092;15.804;2023-03-14T09:55:49;97299.72;;;12.26;100.00
70027;BME280;57506;50.092;15.804;2023-03-14T09:58:20;97280.59;;;12.50;99.09
70027;BME280;57506;50.092;15.804;2023-03-14T10:00:46;97297.47;;;12.62;97.10
70027;BME280;57506;50.092;15.804;2023-03-14T10:05:38;97278.56;;;12.40;96.73
70027;BME280;57506;50.092;15.804;2023-03-14T10:08:04;97289.94;;;12.42;97.44
70027;BME280;57506;50.092;15.804;2023-03-14T10:10:30;97280.44;;;12.61;97.46
70027;BME280;57506;50.092;15.804;2023-03-14T10:13:05;97281.81;;;12.91;94.47
70027;BME280;57506;50.092;15.804;2023-03-14T10:15:37;97279.50;;;13.31;96.17
70027;BME280;57506;50.092;15.804;2023-03-14T10:18:11;97270.88;;;13.72;92.61
70027;BME280;57506;50.092;15.804;2023-03-14T10:20:42;97266.84;;;13.74;89.23
70027;BME280;57506;50.092;15.804;2023-03-14T10:25:42;97266.22;;;13.25;91.25
70027;BME280;57506;50.092;15.804;2023-03-14T10:28:29;97260.63;;;13.10;91.97
70027;BME280;57506;50.092;15.804;2023-03-14T10:30:56;97252.41;;;13.00;92.83
70027;BME280;57506;50.092;15.804;2023-03-14T10:33:23;97248.25;;;12.87;93.72
70027;BME280;57506;50.092;15.804;2023-03-14T10:38:27;97253.91;;;12.85;95.29
70027;BME280;57506;50.092;15.804;2023-03-14T10:40:55;97250.38;;;12.85;93.41
70027;BME280;57506;50.092;15.804;2023-03-14T10:43:26;97259.63;;;12.89;94.84
70027;BME280;57506;50.092;15.804;2023-03-14T10:46:02;97247.91;;;12.78;93.11
70027;BME280;57506;50.092;15.804;2023-03-14T10:48:36;97279.53;;;12.78;94.90
70027;BME280;57506;50.092;15.804;2023-03-14T10:51:10;97266.00;;;12.78;93.66
70027;BME280;57506;50.092;15.804;2023-03-14T10:53:41;97274.22;;;12.88;94.45
70027;BME280;57506;50.092;15.804;2023-03-14T10:56:09;97273.09;;;13.11;91.67
70027;BME280;57506;50.092;15.804;2023-03-14T10:58:41;97252.28;;;13.11;93.92
70027;BME280;57506;50.092;15.804;2023-03-14T11:15:36;97243.19;;;13.22;91.93
70027;BME280;57506;50.092;15.804;2023-03-14T11:23:17;97260.03;;;13.29;91.20
70027;BME280;57506;50.092;15.804;2023-03-14T11:28:41;97246.47;;;13.24;93.01
70027;BME280;57506;50.092;15.804;2023-03-14T11:31:16;97259.81;;;13.09;92.18
70027;BME280;57506;50.092;15.804;2023-03-14T11:36:48;97259.06;;;13.14;92.95
70027;BME280;57506;50.092;15.804;2023-03-14T11:39:18;97257.88;;;13.05;93.37
70027;BME280;57506;50.092;15.804;2023-03-14T11:41:51;97254.16;;;13.11;91.67
70027;BME280;57506;50.092;15.804;2023-03-14T11:44:27;97263.72;;;13.18;91.92
70027;BME280;57506;50.092;15.804;2023-03-14T11:47:03;97254.94;;;13.38;91.56
70027;BME280;57506;50.092;15.804;2023-03-14T11:49:39;97251.16;;;13.39;91.71
70027;BME280;57506;50.092;15.804;2023-03-14T11:52:10;97238.13;;;13.31;89.19
70027;BME280;57506;50.092;15.804;2023-03-14T11:54:50;97242.03;;;13.45;88.22
70027;BME280;57506;50.092;15.804;2023-03-14T11:57:21;97239.88;;;13.47;88.30
70027;BME280;57506;50.092;15.804;2023-03-14T11:59:55;97240.66;;;13.48;88.54
70027;BME280;57506;50.092;15.804;2023-03-14T12:02:49;97235.16;;;13.32;88.54
70027;BME280;57506;50.092;15.804;2023-03-14T12:10:46;97234.72;;;13.14;89.53
70027;BME280;57506;50.092;15.804;2023-03-14T12:13:14;97229.81;;;13.11;88.41
70027;BME280;57506;50.092;15.804;2023-03-14T12:15:50;97229.06;;;13.15;89.67
70027;BME280;57506;50.092;15.804;2023-03-14T12:21:00;97236.97;;;13.22;90.38
70027;BME280;57506;50.092;15.804;2023-03-14T12:23:26;97239.97;;;13.25;90.04
70027;BME280;57506;50.092;15.804;2023-03-14T12:28:36;97230.44;;;13.18;90.50
70027;BME280;57506;50.092;15.804;2023-03-14T12:42:54;97219.22;;;13.04;92.71
70027;BME280;57506;50.092;15.804;2023-03-14T12:45:32;97214.22;;;13.18;89.91
70027;BME280;57506;50.092;15.804;2023-03-14T12:48:29;97218.59;;;13.24;91.43
70027;BME280;57506;50.092;15.804;2023-03-14T12:51:04;97214.81;;;13.25;92.02
70027;BME280;57506;50.092;15.804;2023-03-14T13:04:44;97204.41;;;13.12;95.37
70027;BME280;57506;50.092;15.804;2023-03-14T13:07:31;97205.28;;;13.17;95.40
70027;BME280;57506;50.092;15.804;2023-03-14T13:13:02;97196.88;;;13.14;96.28
70027;BME280;57506;50.092;15.804;2023-03-14T13:15:44;97185.44;;;13.07;96.27
70027;BME280;57506;50.092;15.804;2023-03-14T13:20:50;97188.31;;;12.95;94.08
70027;BME280;57506;50.092;15.804;2023-03-14T13:23:22;97188.06;;;13.28;94.84
70027;BME280;57506;50.092;15.804;2023-03-14T13:25:49;97190.72;;;13.23;91.31
70027;BME280;57506;50.092;15.804;2023-03-14T13:28:16;97197.72;;;13.19;93.53
70027;BME280;57506;50.092;15.804;2023-03-14T13:30:44;97193.69;;;13.22;91.84
70027;BME280;57506;50.092;15.804;2023-03-14T13:33:21;97203.38;;;13.18;93.54
70027;BME280;57506;50.092;15.804;2023-03-14T13:35:56;97198.91;;;13.02;93.53
70027;BME280;57506;50.092;15.804;2023-03-14T13:38:25;97203.34;;;12.81;96.30
70027;BME280;57506;50.092;15.804;2023-03-14T13:40:54;97195.78;;;12.56;96.94
70027;BME280;57506;50.092;15.804;2023-03-14T13:43:33;97200.06;;;12.52;100.00
70027;BME280;57506;50.092;15.804;2023-03-14T13:46:14;97194.13;;;12.50;99.74
70027;BME280;57506;50.092;15.804;2023-03-14T13:48:47;97194.88;;;12.45;100.00
70027;BME280;57506;50.092;15.804;2023-03-14T13:51:18;97187.44;;;12.31;100.00
70027;BME280;57506;50.092;15.804;2023-03-14T13:53:50;97193.47;;;12.16;100.00
70027;BME280;57506;50.092;15.804;2023-03-14T13:56:21;97189.09;;;12.10;100.00
70027;BME280;57506;50.092;15.804;2023-03-14T13:58:47;97193.66;;;12.09;100.00
70027;BME280;57506;50.092;15.804;2023-03-14T14:01:17;97194.16;;;12.06;100.00
70027;BME280;57506;50.092;15.804;2023-03-14T14:03:47;97191.97;;;12.03;100.00
70027;BME280;57506;50.092;15.804;2023-03-14T14:06:29;97192.91;;;12.14;100.00
70027;BME280;57506;50.092;15.804;2023-03-14T14:08:58;97186.94;;;12.34;100.00
70027;BME280;57506;50.092;15.804;2023-03-14T14:14:11;97190.72;;;12.91;100.00